createdAt,value
2022-08-28T00:17:06.400Z,99.90
2022-08-28T00:52:42.892Z,99.90
2022-08-28T01:03:49.784Z,99.90
2022-08-28T01:09:21.195Z,99.90
2022-08-28T01:15:01.006Z,99.90
2022-08-28T01:20:18.336Z,99.90
2022-08-28T01:25:53.329Z,99.90
2022-08-28T02:27:57.699Z,99.90
2022-08-28T02:34:26.518Z,99.90
2022-08-28T02:54:14.763Z,99.90
2022-08-28T03:00:53.614Z,99.90
2022-08-28T03:08:58.438Z,99.90
2022-08-28T03:14:29.462Z,99.90
2022-08-28T03:20:03.515Z,99.90
2022-08-28T03:37:13.263Z,99.90
2022-08-28T03:48:17.897Z,99.90
2022-08-28T03:54:15.166Z,99.90
2022-08-28T03:59:34.861Z,99.90
2022-08-28T04:05:20.129Z,99.90
2022-08-28T04:11:15.231Z,99.90
2022-08-28T04:16:32.644Z,99.90
2022-08-28T04:21:32.702Z,99.90
2022-08-28T04:26:24.336Z,99.90
2022-08-28T04:31:17.821Z,99.90
2022-08-28T04:36:19.291Z,99.90
2022-08-28T04:41:21.725Z,99.90
2022-08-28T04:46:16.561Z,99.90
2022-08-28T04:51:29.900Z,99.90
2022-08-28T04:56:50.561Z,99.90
2022-08-28T05:02:13.676Z,99.90
2022-08-28T05:07:55.812Z,99.90
2022-08-28T05:20:02.942Z,99.90
2022-08-28T05:25:26.287Z,99.90
2022-08-28T05:30:59.262Z,99.90
2022-08-28T05:35:56.894Z,99.90
2022-08-28T05:40:54.804Z,99.90
2022-08-28T05:45:49.330Z,99.90
2022-08-28T05:50:38.963Z,99.90
2022-08-28T05:55:32.375Z,99.90
2022-08-28T06:00:30.634Z,99.90
2022-08-28T06:05:18.688Z,99.90
2022-08-28T06:10:13.646Z,99.90
2022-08-28T06:15:01.914Z,99.90
2022-08-28T06:19:46.903Z,99.90
2022-08-28T06:24:36.811Z,99.90
2022-08-28T06:29:22.335Z,99.90
2022-08-28T06:34:14.608Z,99.90
2022-08-28T06:39:00.302Z,99.90
2022-08-28T06:43:48.731Z,99.90
2022-08-28T06:48:43.751Z,99.90
2022-08-28T06:53:36.048Z,99.90
2022-08-28T06:58:20.201Z,99.90
2022-08-28T07:03:06.213Z,99.90
2022-08-28T07:08:01.995Z,99.90
2022-08-28T07:12:56.547Z,99.90
2022-08-28T07:17:46.399Z,99.90
2022-08-28T07:22:34.764Z,99.90
2022-08-28T07:27:21.127Z,99.90
2022-08-28T07:32:09.932Z,99.90
2022-08-28T07:36:53.822Z,99.90
2022-08-28T07:41:43.036Z,99.90
2022-08-28T07:46:35.735Z,99.90
2022-08-28T07:51:23.314Z,99.90
2022-08-28T07:56:19.059Z,99.90
2022-08-28T08:01:08.055Z,99.90
2022-08-28T08:06:00.309Z,99.90
2022-08-28T08:10:46.942Z,99.90
2022-08-28T08:15:35.577Z,99.90
2022-08-28T08:20:26.033Z,99.90
2022-08-28T08:25:11.110Z,99.90
2022-08-28T08:29:56.349Z,99.90
2022-08-28T08:34:41.965Z,99.90
2022-08-28T08:39:25.855Z,99.90
2022-08-28T08:44:28.479Z,99.90
2022-08-28T08:49:24.358Z,99.90
2022-08-28T08:54:11.806Z,79.00
2022-08-28T08:58:57.185Z,66.70
2022-08-28T09:03:53.114Z,49.90
2022-08-28T09:08:50.118Z,43.10
2022-08-28T09:13:50.421Z,34.10
2022-08-28T09:18:35.595Z,38.60
2022-08-28T09:23:25.922Z,37.20
2022-08-28T09:28:19.285Z,37.70
2022-08-28T09:33:03.698Z,40.60
2022-08-28T09:37:47.558Z,47.20
2022-08-28T09:42:48.763Z,42.30
2022-08-28T09:47:46.375Z,25.90
2022-08-28T09:52:30.821Z,29.20
2022-08-28T09:57:14.603Z,19.10
2022-08-28T10:02:13.302Z,21.70
2022-08-28T10:07:09.669Z,16.60
2022-08-28T10:12:09.416Z,14.10
2022-08-28T10:17:03.701Z,9.60
2022-08-28T10:21:56.726Z,12.40
2022-08-28T10:26:52.300Z,21.50
2022-08-28T10:31:44.320Z,5.10
2022-08-28T10:36:34.858Z,3.60
2022-08-28T10:41:23.266Z,8.60
2022-08-28T10:46:14.704Z,3.10
2022-08-28T10:51:02.786Z,3.50
2022-08-28T10:55:54.970Z,1.70
2022-08-28T11:00:43.155Z,2.20
2022-08-28T11:05:49.355Z,1.00
2022-08-28T11:10:50.336Z,1.00
2022-08-28T11:15:57.200Z,1.70
2022-08-28T11:20:46.916Z,1.00
2022-08-28T11:25:51.603Z,1.00
2022-08-28T11:30:43.459Z,2.10
2022-08-28T11:35:49.061Z,1.60
2022-08-28T11:41:16.001Z,1.00
2022-08-28T11:46:28.752Z,1.00
2022-08-28T11:51:36.022Z,1.00
2022-08-28T11:56:43.206Z,1.00
2022-08-28T12:01:33.934Z,1.00
2022-08-28T12:06:37.660Z,1.00
2022-08-28T12:12:00.472Z,1.00
2022-08-28T12:17:16.484Z,1.00
2022-08-28T12:22:06.252Z,1.00
2022-08-28T12:26:57.124Z,1.00
2022-08-28T12:32:18.655Z,1.00
2022-08-28T12:38:05.010Z,9.80
2022-08-28T12:42:55.209Z,1.00
2022-08-28T12:47:45.979Z,1.00
2022-08-28T12:52:52.418Z,1.00
2022-08-28T12:57:50.207Z,1.00
2022-08-28T13:02:35.188Z,1.00
2022-08-28T13:07:27.066Z,1.00
2022-08-28T13:12:20.138Z,1.00
2022-08-28T13:17:04.667Z,1.00
2022-08-28T13:21:58.648Z,1.00
2022-08-28T13:26:43.816Z,1.00
2022-08-28T13:31:32.815Z,1.00
2022-08-28T13:36:24.974Z,1.00
2022-08-28T13:41:12.338Z,1.00
2022-08-28T13:45:57.915Z,1.00
2022-08-28T13:50:47.155Z,1.00
2022-08-28T13:55:31.127Z,1.00
2022-08-28T14:00:16.372Z,1.00
2022-08-28T14:05:01.550Z,1.00
2022-08-28T14:09:55.496Z,1.00
2022-08-28T14:14:50.379Z,1.00
2022-08-28T14:19:34.969Z,1.00
2022-08-28T14:24:24.728Z,1.00
2022-08-28T14:29:13.672Z,1.00
2022-08-28T14:34:02.882Z,1.00
2022-08-28T14:38:47.541Z,1.00
2022-08-28T14:43:33.719Z,1.00
2022-08-28T14:48:22.596Z,1.00
2022-08-28T14:53:06.854Z,1.00
2022-08-28T14:57:55.007Z,1.00
2022-08-28T15:02:49.175Z,1.00
2022-08-28T15:07:45.529Z,1.00
2022-08-28T15:12:29.457Z,1.00
2022-08-28T15:17:13.376Z,1.00
2022-08-28T15:21:59.568Z,1.00
2022-08-28T15:26:43.758Z,1.00
2022-08-28T15:31:27.736Z,1.00
2022-08-28T15:36:12.120Z,1.00
2022-08-28T15:41:20.038Z,1.00
2022-08-28T15:46:12.125Z,1.00
2022-08-28T15:50:55.782Z,1.00
2022-08-28T15:55:40.610Z,1.00
2022-08-28T16:00:29.214Z,1.00
2022-08-28T16:05:19.900Z,1.00
2022-08-28T16:10:13.798Z,1.00
2022-08-28T16:14:59.670Z,1.00
2022-08-28T16:24:54.637Z,1.00
2022-08-28T16:29:45.787Z,1.00
2022-08-28T16:34:31.608Z,1.00
2022-08-28T16:39:17.253Z,1.00
2022-08-28T16:44:01.010Z,1.00
2022-08-28T16:48:45.349Z,1.00
2022-08-28T16:53:29.020Z,1.00
2022-08-28T16:58:16.939Z,1.00
2022-08-28T17:03:00.931Z,1.00
2022-08-28T17:07:46.675Z,1.00
2022-08-28T17:12:30.529Z,1.00
2022-08-28T17:17:23.146Z,1.00
2022-08-28T17:22:30.056Z,1.00
2022-08-28T17:27:22.462Z,1.00
2022-08-28T17:32:23.398Z,1.00
2022-08-28T17:37:15.708Z,1.00
2022-08-28T17:42:10.571Z,1.00
2022-08-28T17:47:06.738Z,1.00
2022-08-28T17:51:54.255Z,1.00
2022-08-28T17:56:43.716Z,1.00
2022-08-28T18:02:09.327Z,1.00
2022-08-28T18:07:10.673Z,1.00
2022-08-28T18:12:12.651Z,1.00
2022-08-28T18:17:06.575Z,1.00
2022-08-28T18:22:13.047Z,1.00
2022-08-28T18:26:58.373Z,1.00
2022-08-28T18:31:54.152Z,1.00
2022-08-28T18:42:11.972Z,1.00
2022-08-28T18:47:17.428Z,1.00
2022-08-28T18:52:11.948Z,1.00
2022-08-28T18:57:01.359Z,1.00
2022-08-28T19:02:07.878Z,1.00
2022-08-28T19:06:57.812Z,4.50
2022-08-28T19:11:48.656Z,1.00
2022-08-28T19:16:37.070Z,10.60
2022-08-28T19:21:23.188Z,1.00
2022-08-28T19:26:13.078Z,1.30
2022-08-28T19:30:59.962Z,1.00
2022-08-28T19:35:44.815Z,1.00
2022-08-28T19:40:33.820Z,2.70
2022-08-28T19:45:18.734Z,1.00
2022-08-28T19:50:03.037Z,1.00
2022-08-28T19:54:52.323Z,1.00
2022-08-28T19:59:43.774Z,10.30
2022-08-28T20:04:33.927Z,17.00
2022-08-28T20:09:25.339Z,26.40
2022-08-28T20:14:20.123Z,34.00
2022-08-28T20:19:08.107Z,17.80
2022-08-28T20:23:59.576Z,34.40
2022-08-28T20:28:44.762Z,25.10
2022-08-28T20:33:37.849Z,52.10
2022-08-28T20:38:23.776Z,68.00
2022-08-28T20:43:08.974Z,68.80
2022-08-28T20:47:59.600Z,69.40
2022-08-28T20:52:54.389Z,91.40
2022-08-28T20:57:41.057Z,99.90
2022-08-28T21:02:31.346Z,99.90
2022-08-28T21:13:10.167Z,99.90
2022-08-28T21:24:11.301Z,99.90
2022-08-28T21:29:35.600Z,99.90
2022-08-28T21:34:23.935Z,99.90
2022-08-28T21:39:11.394Z,99.90
2022-08-28T21:44:00.074Z,99.90
2022-08-28T21:49:38.872Z,99.90
2022-08-28T21:55:12.796Z,99.90
2022-08-28T22:05:31.996Z,90.20
2022-08-28T22:10:27.627Z,93.20
2022-08-28T22:15:14.912Z,43.90
2022-08-28T22:20:08.684Z,49.50
2022-08-28T22:25:57.172Z,36.20
2022-08-28T22:31:46.086Z,27.40
2022-08-28T22:36:42.626Z,22.20
2022-08-28T22:41:34.267Z,18.50
2022-08-28T22:46:36.608Z,11.40
2022-08-28T22:57:05.898Z,9.30
2022-08-28T23:01:52.410Z,7.60
2022-08-28T23:06:40.571Z,5.80
2022-08-28T23:11:49.724Z,9.60
2022-08-28T23:16:45.392Z,1.00
2022-08-28T23:21:29.560Z,2.80
2022-08-28T23:26:27.919Z,13.40
2022-08-28T23:31:18.339Z,1.00
2022-08-28T23:36:11.582Z,1.00
2022-08-28T23:40:57.476Z,1.00
2022-08-28T23:45:45.321Z,1.00
2022-08-28T23:50:32.103Z,2.60
2022-08-28T23:55:37.307Z,1.00
